createdAt,value
2017-07-12T19:16:58.197Z,99161.09
2017-07-12T19:19:25.265Z,99169.28
2017-07-12T19:21:52.367Z,99179.29
2017-07-12T19:24:19.432Z,99184.83
2017-07-12T19:26:46.567Z,99190.00
2017-07-12T20:01:40.166Z,99248.91
2017-07-12T20:04:07.688Z,99267.42
2017-07-12T20:06:35.250Z,99266.36
2017-07-12T20:09:02.779Z,99262.45
2017-07-12T20:11:30.324Z,99264.05
2017-07-12T20:13:57.881Z,99270.84
2017-07-12T20:16:25.396Z,99282.99
2017-07-12T20:18:52.974Z,99285.80
2017-07-12T20:24:05.670Z,99211.20
2017-07-12T20:26:33.189Z,99212.80
2017-07-12T20:29:00.762Z,99219.50
2017-07-12T20:31:28.287Z,99218.28
2017-07-12T20:33:55.817Z,99224.61
2017-07-12T20:36:23.365Z,99227.03
2017-07-12T20:38:53.110Z,99225.16
2017-07-12T20:41:20.728Z,99232.50
2017-07-12T20:43:48.245Z,99237.45
2017-07-12T20:46:15.826Z,99251.61
2017-07-12T20:48:43.338Z,99249.70
2017-07-12T20:51:10.915Z,99252.16
2017-07-12T20:53:38.441Z,99253.81
2017-07-12T20:56:05.956Z,99259.36
2017-07-12T20:58:33.496Z,99267.81
2017-07-12T21:01:01.010Z,99266.45
2017-07-12T21:03:28.581Z,99270.94
2017-07-12T21:05:56.096Z,99277.89
2017-07-12T21:08:23.614Z,99290.13
2017-07-12T21:10:51.168Z,99289.17
2017-07-12T21:13:18.682Z,99287.22
2017-07-12T21:15:46.249Z,99289.38
2017-07-12T21:18:13.766Z,99298.09
2017-07-12T21:20:41.285Z,99293.38
2017-07-12T21:23:08.837Z,99295.70
2017-07-12T21:25:36.346Z,99304.55
2017-07-12T21:28:03.926Z,99300.95
2017-07-12T21:30:31.448Z,99300.20
2017-07-12T21:32:58.956Z,99300.13
2017-07-12T21:35:26.501Z,99294.36
2017-07-12T21:37:54.016Z,99296.04
2017-07-12T21:40:21.590Z,99311.44
2017-07-12T21:42:49.111Z,99317.20
2017-07-12T21:45:16.634Z,99321.83
2017-07-12T21:47:44.196Z,99319.57
2017-07-12T21:50:11.716Z,99326.84
2017-07-12T21:52:39.297Z,99336.09
2017-07-12T21:55:24.186Z,99328.66
2017-07-12T21:58:08.935Z,99335.20
2017-07-12T22:00:53.743Z,99337.52
2017-07-12T22:03:38.540Z,99333.18
2017-07-12T22:06:23.449Z,99328.32
2017-07-12T22:09:08.337Z,99329.56
2017-07-12T22:11:53.233Z,99332.83
2017-07-12T22:14:38.039Z,99344.73
2017-07-12T22:17:22.911Z,99348.92
2017-07-12T22:20:07.760Z,99350.34
2017-07-12T22:22:52.547Z,99351.30
2017-07-12T22:25:37.521Z,99361.09
2017-07-12T22:28:22.303Z,99367.81
2017-07-12T22:31:07.156Z,99372.03
2017-07-12T22:33:52.056Z,99383.78
2017-07-12T22:36:36.964Z,99379.84
2017-07-12T22:39:09.995Z,99376.72
2017-07-12T22:41:43.151Z,99379.75
2017-07-12T22:44:10.118Z,99379.49
2017-07-12T22:46:37.632Z,99374.05
2017-07-12T22:49:05.178Z,99374.20
2017-07-12T22:51:32.689Z,99369.34
2017-07-12T22:54:00.243Z,99377.78
2017-07-12T22:56:27.762Z,99376.34
2017-07-12T22:58:55.277Z,99377.70
2017-07-12T23:01:22.843Z,99380.64
2017-07-12T23:03:50.360Z,99383.28
2017-07-12T23:06:17.873Z,99384.64
2017-07-12T23:08:45.422Z,99386.80
2017-07-12T23:11:12.941Z,99383.59
2017-07-12T23:13:40.492Z,99382.12
2017-07-12T23:16:08.132Z,99386.60
2017-07-12T23:18:35.648Z,99387.55
2017-07-12T23:21:03.213Z,99391.78
2017-07-12T23:23:30.788Z,99392.18
2017-07-12T23:25:58.356Z,99403.78
2017-07-12T23:28:25.875Z,99397.67
2017-07-12T23:30:53.401Z,99400.94
2017-07-12T23:33:20.953Z,99406.64
2017-07-12T23:35:48.464Z,99410.77
2017-07-12T23:38:16.042Z,99406.28
2017-07-12T23:40:43.552Z,99405.33
2017-07-12T23:43:11.074Z,99410.77
2017-07-12T23:45:38.622Z,99418.73
2017-07-12T23:48:06.145Z,99412.82
2017-07-12T23:50:33.695Z,99416.90
2017-07-12T23:53:01.207Z,99420.14
2017-07-12T23:55:28.734Z,99422.34
2017-07-12T23:57:56.294Z,99428.63
